sensor_id;sensor_type;location;lat;lon;timestamp;temperature;humidity
58582;DHT22;44361;51.476;5.700;2023-06-04T00:00:16;12.10;61.50
58582;DHT22;44361;51.476;5.700;2023-06-04T00:02:42;12.10;62.10
58582;DHT22;44361;51.476;5.700;2023-06-04T00:05:08;12.00;62.90
58582;DHT22;44361;51.476;5.700;2023-06-04T00:07:33;12.00;63.50
58582;DHT22;44361;51.476;5.700;2023-06-04T00:09:59;12.00;64.00
58582;DHT22;44361;51.476;5.700;2023-06-04T00:12:24;12.00;64.70
58582;DHT22;44361;51.476;5.700;2023-06-04T00:14:50;12.00;65.50
58582;DHT22;44361;51.476;5.700;2023-06-04T00:17:16;11.90;66.20
58582;DHT22;44361;51.476;5.700;2023-06-04T00:19:41;11.90;67.00
58582;DHT22;44361;51.476;5.700;2023-06-04T00:22:07;11.90;67.80
58582;DHT22;44361;51.476;5.700;2023-06-04T00:24:36;11.80;68.30
58582;DHT22;44361;51.476;5.700;2023-06-04T00:27:02;11.80;69.20
58582;DHT22;44361;51.476;5.700;2023-06-04T00:29:28;11.80;70.00
58582;DHT22;44361;51.476;5.700;2023-06-04T00:31:53;11.70;70.90
58582;DHT22;44361;51.476;5.700;2023-06-04T00:34:19;11.70;72.10
58582;DHT22;44361;51.476;5.700;2023-06-04T00:36:44;11.60;73.00
58582;DHT22;44361;51.476;5.700;2023-06-04T00:39:10;11.70;74.40
58582;DHT22;44361;51.476;5.700;2023-06-04T00:41:36;11.70;74.70
58582;DHT22;44361;51.476;5.700;2023-06-04T00:44:01;11.70;76.00
58582;DHT22;44361;51.476;5.700;2023-06-04T00:46:28;11.70;76.90
58582;DHT22;44361;51.476;5.700;2023-06-04T00:48:55;11.60;78.00
58582;DHT22;44361;51.476;5.700;2023-06-04T00:51:21;11.60;79.10
58582;DHT22;44361;51.476;5.700;2023-06-04T00:53:51;11.60;80.50
58582;DHT22;44361;51.476;5.700;2023-06-04T00:56:17;11.60;81.30
58582;DHT22;44361;51.476;5.700;2023-06-04T00:58:44;11.60;82.00
58582;DHT22;44361;51.476;5.700;2023-06-04T01:01:46;11.50;83.10
58582;DHT22;44361;51.476;5.700;2023-06-04T01:04:21;11.50;83.70
58582;DHT22;44361;51.476;5.700;2023-06-04T01:06:50;11.40;84.80
58582;DHT22;44361;51.476;5.700;2023-06-04T01:09:16;11.30;86.50
58582;DHT22;44361;51.476;5.700;2023-06-04T01:11:42;11.30;87.30
58582;DHT22;44361;51.476;5.700;2023-06-04T01:14:09;11.30;88.80
58582;DHT22;44361;51.476;5.700;2023-06-04T01:16:46;11.30;90.00
58582;DHT22;44361;51.476;5.700;2023-06-04T01:25:35;11.10;91.60
58582;DHT22;44361;51.476;5.700;2023-06-04T01:28:05;11.10;91.90
58582;DHT22;44361;51.476;5.700;2023-06-04T01:30:33;11.10;92.10
58582;DHT22;44361;51.476;5.700;2023-06-04T01:33:00;11.10;92.50
58582;DHT22;44361;51.476;5.700;2023-06-04T01:35:27;11.00;92.70
58582;DHT22;44361;51.476;5.700;2023-06-04T01:37:54;11.00;93.50
58582;DHT22;44361;51.476;5.700;2023-06-04T01:40:21;10.90;93.60
58582;DHT22;44361;51.476;5.700;2023-06-04T01:42:46;10.90;94.00
58582;DHT22;44361;51.476;5.700;2023-06-04T01:45:12;10.80;94.50
58582;DHT22;44361;51.476;5.700;2023-06-04T01:47:38;10.80;94.90
58582;DHT22;44361;51.476;5.700;2023-06-04T01:50:07;10.80;95.20
58582;DHT22;44361;51.476;5.700;2023-06-04T01:52:37;10.90;95.20
58582;DHT22;44361;51.476;5.700;2023-06-04T01:55:04;10.80;95.50
58582;DHT22;44361;51.476;5.700;2023-06-04T01:57:30;10.70;95.80
58582;DHT22;44361;51.476;5.700;2023-06-04T01:59:55;10.70;96.10
58582;DHT22;44361;51.476;5.700;2023-06-04T02:02:21;10.70;96.40
58582;DHT22;44361;51.476;5.700;2023-06-04T02:04:47;10.60;96.60
58582;DHT22;44361;51.476;5.700;2023-06-04T02:07:13;10.50;96.80
58582;DHT22;44361;51.476;5.700;2023-06-04T02:09:43;10.50;97.20
58582;DHT22;44361;51.476;5.700;2023-06-04T02:12:08;10.40;97.60
58582;DHT22;44361;51.476;5.700;2023-06-04T02:14:34;10.50;97.90
58582;DHT22;44361;51.476;5.700;2023-06-04T02:17:00;10.40;98.20
58582;DHT22;44361;51.476;5.700;2023-06-04T02:19:25;10.30;98.50
58582;DHT22;44361;51.476;5.700;2023-06-04T02:21:53;10.30;98.90
58582;DHT22;44361;51.476;5.700;2023-06-04T02:24:19;10.30;99.20
58582;DHT22;44361;51.476;5.700;2023-06-04T02:26:45;10.20;99.30
58582;DHT22;44361;51.476;5.700;2023-06-04T02:29:11;10.20;99.60
58582;DHT22;44361;51.476;5.700;2023-06-04T02:31:37;10.20;99.50
58582;DHT22;44361;51.476;5.700;2023-06-04T02:34:03;10.30;99.90
58582;DHT22;44361;51.476;5.700;2023-06-04T02:36:29;10.20;99.70
58582;DHT22;44361;51.476;5.700;2023-06-04T02:38:54;10.20;99.90
58582;DHT22;44361;51.476;5.700;2023-06-04T02:41:21;10.10;99.90
58582;DHT22;44361;51.476;5.700;2023-06-04T02:43:46;10.10;99.90
58582;DHT22;44361;51.476;5.700;2023-06-04T02:46:12;10.10;99.90
58582;DHT22;44361;51.476;5.700;2023-06-04T02:48:37;10.10;99.90
58582;DHT22;44361;51.476;5.700;2023-06-04T02:51:03;10.10;99.90
58582;DHT22;44361;51.476;5.700;2023-06-04T02:53:30;10.10;99.90
58582;DHT22;44361;51.476;5.700;2023-06-04T02:55:55;10.10;99.90
58582;DHT22;44361;51.476;5.700;2023-06-04T02:58:22;10.10;99.90
58582;DHT22;44361;51.476;5.700;2023-06-04T03:00:52;10.10;99.90
58582;DHT22;44361;51.476;5.700;2023-06-04T03:03:17;10.00;99.90
58582;DHT22;44361;51.476;5.700;2023-06-04T03:05:43;10.00;99.90
58582;DHT22;44361;51.476;5.700;2023-06-04T03:08:08;10.00;99.90
58582;DHT22;44361;51.476;5.700;2023-06-04T03:10:34;10.00;99.90
58582;DHT22;44361;51.476;5.700;2023-06-04T03:12:59;10.00;99.90
58582;DHT22;44361;51.476;5.700;2023-06-04T03:15:25;9.90;99.90
58582;DHT22;44361;51.476;5.700;2023-06-04T03:17:50;9.90;99.90
58582;DHT22;44361;51.476;5.700;2023-06-04T03:20:16;9.90;99.90
58582;DHT22;44361;51.476;5.700;2023-06-04T03:22:42;9.90;99.90
58582;DHT22;44361;51.476;5.700;2023-06-04T03:25:08;9.80;99.90
58582;DHT22;44361;51.476;5.700;2023-06-04T03:27:34;9.80;99.90
58582;DHT22;44361;51.476;5.700;2023-06-04T03:29:59;9.80;99.90
58582;DHT22;44361;51.476;5.700;2023-06-04T03:32:25;9.80;99.90
58582;DHT22;44361;51.476;5.700;2023-06-04T03:34:50;9.80;99.90
58582;DHT22;44361;51.476;5.700;2023-06-04T03:37:17;9.80;99.90
58582;DHT22;44361;51.476;5.700;2023-06-04T03:39:42;9.80;99.90
58582;DHT22;44361;51.476;5.700;2023-06-04T03:42:08;9.80;99.90
58582;DHT22;44361;51.476;5.700;2023-06-04T03:44:34;9.80;99.90
58582;DHT22;44361;51.476;5.700;2023-06-04T03:46:59;9.80;99.90
58582;DHT22;44361;51.476;5.700;2023-06-04T03:49:25;9.80;99.90
58582;DHT22;44361;51.476;5.700;2023-06-04T03:51:51;9.90;99.90
58582;DHT22;44361;51.476;5.700;2023-06-04T03:54:16;9.80;99.90
58582;DHT22;44361;51.476;5.700;2023-06-04T03:56:43;9.80;99.90
58582;DHT22;44361;51.476;5.700;2023-06-04T03:59:09;9.80;99.90
58582;DHT22;44361;51.476;5.700;2023-06-04T04:01:35;9.80;99.90
58582;DHT22;44361;51.476;5.700;2023-06-04T04:04:00;9.80;99.90
58582;DHT22;44361;51.476;5.700;2023-06-04T04:06:26;9.90;99.90
58582;DHT22;44361;51.476;5.700;2023-06-04T04:08:51;9.80;99.90
58582;DHT22;44361;51.476;5.700;2023-06-04T04:11:17;9.90;99.90
58582;DHT22;44361;51.476;5.700;2023-06-04T04:13:44;9.90;99.90
58582;DHT22;44361;51.476;5.700;2023-06-04T04:16:10;10.00;99.90
58582;DHT22;44361;51.476;5.700;2023-06-04T04:18:36;10.00;99.90
58582;DHT22;44361;51.476;5.700;2023-06-04T04:21:03;10.00;99.90
58582;DHT22;44361;51.476;5.700;2023-06-04T04:23:30;10.00;99.90
58582;DHT22;44361;51.476;5.700;2023-06-04T04:25:58;10.10;99.90
58582;DHT22;44361;51.476;5.700;2023-06-04T04:28:27;10.00;99.90
58582;DHT22;44361;51.476;5.700;2023-06-04T04:30:57;10.10;99.90
58582;DHT22;44361;51.476;5.700;2023-06-04T04:33:23;10.10;99.90
58582;DHT22;44361;51.476;5.700;2023-06-04T04:35:50;10.20;99.90
58582;DHT22;44361;51.476;5.700;2023-06-04T04:38:16;10.20;99.90
58582;DHT22;44361;51.476;5.700;2023-06-04T04:40:43;10.40;99.90
58582;DHT22;44361;51.476;5.700;2023-06-04T04:43:08;10.40;99.90
58582;DHT22;44361;51.476;5.700;2023-06-04T04:45:34;10.50;99.90
58582;DHT22;44361;51.476;5.700;2023-06-04T04:47:59;10.60;99.90
58582;DHT22;44361;51.476;5.700;2023-06-04T04:50:25;10.60;99.90
58582;DHT22;44361;51.476;5.700;2023-06-04T04:52:51;10.70;99.90
58582;DHT22;44361;51.476;5.700;2023-06-04T04:55:16;10.80;99.90
58582;DHT22;44361;51.476;5.700;2023-06-04T04:57:42;11.00;99.90
58582;DHT22;44361;51.476;5.700;2023-06-04T05:00:08;11.60;99.90
58582;DHT22;44361;51.476;5.700;2023-06-04T05:02:37;12.00;99.90
58582;DHT22;44361;51.476;5.700;2023-06-04T05:05:03;12.60;98.00
58582;DHT22;44361;51.476;5.700;2023-06-04T05:07:29;13.30;97.30
58582;DHT22;44361;51.476;5.700;2023-06-04T05:09:55;13.90;95.70
58582;DHT22;44361;51.476;5.700;2023-06-04T05:12:21;14.40;94.30
58582;DHT22;44361;51.476;5.700;2023-06-04T05:14:46;14.80;93.00
58582;DHT22;44361;51.476;5.700;2023-06-04T05:17:12;15.10;92.10
58582;DHT22;44361;51.476;5.700;2023-06-04T05:19:38;15.30;90.80
58582;DHT22;44361;51.476;5.700;2023-06-04T05:22:04;15.40;90.40
58582;DHT22;44361;51.476;5.700;2023-06-04T05:24:31;15.80;90.00
58582;DHT22;44361;51.476;5.700;2023-06-04T05:26:58;16.00;88.20
58582;DHT22;44361;51.476;5.700;2023-06-04T05:29:23;16.10;87.60
58582;DHT22;44361;51.476;5.700;2023-06-04T05:31:49;16.10;86.50
58582;DHT22;44361;51.476;5.700;2023-06-04T05:34:15;15.90;86.20
58582;DHT22;44361;51.476;5.700;2023-06-04T05:36:41;15.90;85.70
58582;DHT22;44361;51.476;5.700;2023-06-04T05:39:06;15.90;87.60
58582;DHT22;44361;51.476;5.700;2023-06-04T05:41:32;16.30;86.40
58582;DHT22;44361;51.476;5.700;2023-06-04T05:43:58;16.60;87.00
58582;DHT22;44361;51.476;5.700;2023-06-04T05:46:23;16.50;84.40
58582;DHT22;44361;51.476;5.700;2023-06-04T05:48:49;16.40;83.20
58582;DHT22;44361;51.476;5.700;2023-06-04T05:51:16;16.30;85.20
58582;DHT22;44361;51.476;5.700;2023-06-04T05:53:41;16.40;85.20
58582;DHT22;44361;51.476;5.700;2023-06-04T05:56:07;16.40;84.60
58582;DHT22;44361;51.476;5.700;2023-06-04T05:58:33;16.70;83.40
58582;DHT22;44361;51.476;5.700;2023-06-04T06:00:59;17.00;81.90
58582;DHT22;44361;51.476;5.700;2023-06-04T06:03:25;17.20;81.40
58582;DHT22;44361;51.476;5.700;2023-06-04T06:05:52;17.10;80.10
58582;DHT22;44361;51.476;5.700;2023-06-04T06:08:19;17.20;78.50
58582;DHT22;44361;51.476;5.700;2023-06-04T06:10:45;17.30;80.70
58582;DHT22;44361;51.476;5.700;2023-06-04T06:13:11;17.50;78.60
58582;DHT22;44361;51.476;5.700;2023-06-04T06:15:36;17.50;77.30
58582;DHT22;44361;51.476;5.700;2023-06-04T06:18:02;17.50;76.80
58582;DHT22;44361;51.476;5.700;2023-06-04T06:20:27;17.70;77.00
58582;DHT22;44361;51.476;5.700;2023-06-04T06:22:54;17.70;74.70
58582;DHT22;44361;51.476;5.700;2023-06-04T06:25:20;17.60;74.00
58582;DHT22;44361;51.476;5.700;2023-06-04T06:27:45;17.50;73.80
58582;DHT22;44361;51.476;5.700;2023-06-04T06:30:11;17.50;75.00
58582;DHT22;44361;51.476;5.700;2023-06-04T06:32:37;17.50;73.80
58582;DHT22;44361;51.476;5.700;2023-06-04T06:35:03;17.50;73.40
58582;DHT22;44361;51.476;5.700;2023-06-04T06:37:29;17.50;72.10
58582;DHT22;44361;51.476;5.700;2023-06-04T06:39:55;17.90;72.50
58582;DHT22;44361;51.476;5.700;2023-06-04T06:42:20;17.90;72.00
58582;DHT22;44361;51.476;5.700;2023-06-04T06:44:46;17.90;71.60
58582;DHT22;44361;51.476;5.700;2023-06-04T06:47:12;18.10;69.40
58582;DHT22;44361;51.476;5.700;2023-06-04T06:49:39;17.70;70.70
58582;DHT22;44361;51.476;5.700;2023-06-04T06:52:05;17.70;72.80
58582;DHT22;44361;51.476;5.700;2023-06-04T06:54:31;18.30;72.30
58582;DHT22;44361;51.476;5.700;2023-06-04T06:56:56;18.70;71.00
58582;DHT22;44361;51.476;5.700;2023-06-04T06:59:23;18.70;69.20
58582;DHT22;44361;51.476;5.700;2023-06-04T07:01:49;18.60;67.30
58582;DHT22;44361;51.476;5.700;2023-06-04T07:04:15;18.80;67.30
58582;DHT22;44361;51.476;5.700;2023-06-04T07:06:41;18.90;66.90
58582;DHT22;44361;51.476;5.700;2023-06-04T07:09:07;19.00;66.20
58582;DHT22;44361;51.476;5.700;2023-06-04T07:11:32;18.80;65.50
58582;DHT22;44361;51.476;5.700;2023-06-04T07:13:58;18.80;65.40
58582;DHT22;44361;51.476;5.700;2023-06-04T07:16:24;18.90;66.20
58582;DHT22;44361;51.476;5.700;2023-06-04T07:18:49;19.00;66.70
58582;DHT22;44361;51.476;5.700;2023-06-04T07:21:15;19.10;65.90
58582;DHT22;44361;51.476;5.700;2023-06-04T07:23:41;19.10;65.20
58582;DHT22;44361;51.476;5.700;2023-06-04T07:26:06;19.00;66.30
58582;DHT22;44361;51.476;5.700;2023-06-04T07:28:32;18.90;63.00
58582;DHT22;44361;51.476;5.700;2023-06-04T07:30:58;18.90;63.80
58582;DHT22;44361;51.476;5.700;2023-06-04T07:33:24;19.10;63.30
58582;DHT22;44361;51.476;5.700;2023-06-04T07:35:50;19.00;63.30
58582;DHT22;44361;51.476;5.700;2023-06-04T07:38:15;18.70;64.20
58582;DHT22;44361;51.476;5.700;2023-06-04T07:40:41;19.00;64.00
58582;DHT22;44361;51.476;5.700;2023-06-04T07:43:07;19.20;64.10
58582;DHT22;44361;51.476;5.700;2023-06-04T07:45:33;19.20;62.10
58582;DHT22;44361;51.476;5.700;2023-06-04T07:47:58;19.50;62.70
58582;DHT22;44361;51.476;5.700;2023-06-04T07:50:24;19.60;58.10
58582;DHT22;44361;51.476;5.700;2023-06-04T07:52:50;19.50;59.20
58582;DHT22;44361;51.476;5.700;2023-06-04T07:55:16;19.80;60.70
58582;DHT22;44361;51.476;5.700;2023-06-04T07:57:42;20.00;60.20
58582;DHT22;44361;51.476;5.700;2023-06-04T08:00:08;20.20;61.20
58582;DHT22;44361;51.476;5.700;2023-06-04T08:02:34;20.30;60.10
58582;DHT22;44361;51.476;5.700;2023-06-04T08:05:00;20.40;60.20
58582;DHT22;44361;51.476;5.700;2023-06-04T08:07:29;20.50;58.30
58582;DHT22;44361;51.476;5.700;2023-06-04T08:09:55;20.80;59.10
58582;DHT22;44361;51.476;5.700;2023-06-04T08:12:22;21.00;58.20
58582;DHT22;44361;51.476;5.700;2023-06-04T08:14:47;21.00;56.80
58582;DHT22;44361;51.476;5.700;2023-06-04T08:17:13;20.70;55.70
58582;DHT22;44361;51.476;5.700;2023-06-04T08:19:38;20.70;53.90
58582;DHT22;44361;51.476;5.700;2023-06-04T08:22:04;21.00;56.20
58582;DHT22;44361;51.476;5.700;2023-06-04T08:24:30;21.10;54.70
58582;DHT22;44361;51.476;5.700;2023-06-04T08:26:55;21.30;55.20
58582;DHT22;44361;51.476;5.700;2023-06-04T08:29:21;21.40;53.90
58582;DHT22;44361;51.476;5.700;2023-06-04T08:31:47;21.30;56.20
58582;DHT22;44361;51.476;5.700;2023-06-04T08:34:12;21.60;53.10
58582;DHT22;44361;51.476;5.700;2023-06-04T08:36:38;21.40;53.40
58582;DHT22;44361;51.476;5.700;2023-06-04T08:39:04;21.80;53.10
58582;DHT22;44361;51.476;5.700;2023-06-04T08:41:49;21.80;51.50
58582;DHT22;44361;51.476;5.700;2023-06-04T08:44:17;21.70;51.60
58582;DHT22;44361;51.476;5.700;2023-06-04T08:46:44;21.90;51.90
58582;DHT22;44361;51.476;5.700;2023-06-04T08:49:12;21.80;51.60
58582;DHT22;44361;51.476;5.700;2023-06-04T08:51:38;21.90;52.50
58582;DHT22;44361;51.476;5.700;2023-06-04T08:54:08;21.90;49.70
58582;DHT22;44361;51.476;5.700;2023-06-04T08:56:35;22.00;50.30
58582;DHT22;44361;51.476;5.700;2023-06-04T08:59:03;22.10;47.70
58582;DHT22;44361;51.476;5.700;2023-06-04T09:01:31;22.00;50.10
58582;DHT22;44361;51.476;5.700;2023-06-04T09:03:57;22.20;49.50
58582;DHT22;44361;51.476;5.700;2023-06-04T09:06:26;22.30;48.60
58582;DHT22;44361;51.476;5.700;2023-06-04T09:08:54;22.40;47.60
58582;DHT22;44361;51.476;5.700;2023-06-04T09:11:23;22.60;48.60
58582;DHT22;44361;51.476;5.700;2023-06-04T09:13:53;22.70;48.00
58582;DHT22;44361;51.476;5.700;2023-06-04T09:16:18;23.00;46.60
58582;DHT22;44361;51.476;5.700;2023-06-04T09:18:44;23.10;45.70
58582;DHT22;44361;51.476;5.700;2023-06-04T09:21:10;22.90;48.10
58582;DHT22;44361;51.476;5.700;2023-06-04T09:23:48;23.10;47.80
58582;DHT22;44361;51.476;5.700;2023-06-04T09:26:15;23.40;47.40
58582;DHT22;44361;51.476;5.700;2023-06-04T09:28:44;23.40;46.70
58582;DHT22;44361;51.476;5.700;2023-06-04T09:31:15;23.30;45.70
58582;DHT22;44361;51.476;5.700;2023-06-04T09:33:49;22.80;46.00
58582;DHT22;44361;51.476;5.700;2023-06-04T09:36:15;23.00;45.10
58582;DHT22;44361;51.476;5.700;2023-06-04T09:38:41;22.90;45.20
58582;DHT22;44361;51.476;5.700;2023-06-04T09:41:17;23.10;44.80
58582;DHT22;44361;51.476;5.700;2023-06-04T09:43:45;23.20;45.40
58582;DHT22;44361;51.476;5.700;2023-06-04T09:46:15;23.40;45.60
58582;DHT22;44361;51.476;5.700;2023-06-04T09:48:42;23.30;44.70
58582;DHT22;44361;51.476;5.700;2023-06-04T09:51:15;23.30;46.20
58582;DHT22;44361;51.476;5.700;2023-06-04T09:53:53;23.40;46.40
58582;DHT22;44361;51.476;5.700;2023-06-04T09:56:20;23.50;46.40
58582;DHT22;44361;51.476;5.700;2023-06-04T09:58:48;23.40;44.30
58582;DHT22;44361;51.476;5.700;2023-06-04T10:01:14;23.50;46.70
58582;DHT22;44361;51.476;5.700;2023-06-04T10:03:43;23.60;44.90
58582;DHT22;44361;51.476;5.700;2023-06-04T10:06:15;23.20;45.10
58582;DHT22;44361;51.476;5.700;2023-06-04T10:08:43;23.20;46.00
58582;DHT22;44361;51.476;5.700;2023-06-04T10:11:11;23.00;46.20
58582;DHT22;44361;51.476;5.700;2023-06-04T10:14:02;23.20;45.50
58582;DHT22;44361;51.476;5.700;2023-06-04T10:16:30;23.10;45.80
58582;DHT22;44361;51.476;5.700;2023-06-04T10:18:57;23.40;45.40
58582;DHT22;44361;51.476;5.700;2023-06-04T10:21:25;23.50;45.10
58582;DHT22;44361;51.476;5.700;2023-06-04T10:23:51;23.40;44.80
58582;DHT22;44361;51.476;5.700;2023-06-04T10:26:17;23.50;44.40
58582;DHT22;44361;51.476;5.700;2023-06-04T10:28:43;23.40;44.70
58582;DHT22;44361;51.476;5.700;2023-06-04T10:31:10;23.80;46.00
58582;DHT22;44361;51.476;5.700;2023-06-04T10:33:36;23.90;46.10
58582;DHT22;44361;51.476;5.700;2023-06-04T10:36:18;23.90;47.60
58582;DHT22;44361;51.476;5.700;2023-06-04T10:38:54;24.00;47.20
58582;DHT22;44361;51.476;5.700;2023-06-04T10:41:21;24.10;45.80
58582;DHT22;44361;51.476;5.700;2023-06-04T10:43:59;23.80;44.30
58582;DHT22;44361;51.476;5.700;2023-06-04T10:46:25;23.70;44.90
58582;DHT22;44361;51.476;5.700;2023-06-04T10:48:52;23.80;45.30
58582;DHT22;44361;51.476;5.700;2023-06-04T10:51:34;23.70;45.90
58582;DHT22;44361;51.476;5.700;2023-06-04T10:54:01;23.80;44.20
58582;DHT22;44361;51.476;5.700;2023-06-04T10:56:28;23.70;44.10
58582;DHT22;44361;51.476;5.700;2023-06-04T10:58:55;24.00;44.80
58582;DHT22;44361;51.476;5.700;2023-06-04T11:01:28;24.40;45.50
58582;DHT22;44361;51.476;5.700;2023-06-04T11:03:57;24.80;47.20
58582;DHT22;44361;51.476;5.700;2023-06-04T11:06:23;25.00;47.90
58582;DHT22;44361;51.476;5.700;2023-06-04T11:09:02;24.90;46.30
58582;DHT22;44361;51.476;5.700;2023-06-04T11:11:28;24.40;46.20
58582;DHT22;44361;51.476;5.700;2023-06-04T11:13:53;24.10;46.20
58582;DHT22;44361;51.476;5.700;2023-06-04T11:16:20;24.00;46.10
58582;DHT22;44361;51.476;5.700;2023-06-04T11:18:58;23.70;46.90
58582;DHT22;44361;51.476;5.700;2023-06-04T11:21:28;24.00;46.00
58582;DHT22;44361;51.476;5.700;2023-06-04T11:24:00;24.20;47.40
58582;DHT22;44361;51.476;5.700;2023-06-04T11:28:56;24.60;48.10
58582;DHT22;44361;51.476;5.700;2023-06-04T11:31:21;24.30;47.70
58582;DHT22;44361;51.476;5.700;2023-06-04T11:33:48;24.30;48.60
58582;DHT22;44361;51.476;5.700;2023-06-04T11:36:27;24.00;47.00
58582;DHT22;44361;51.476;5.700;2023-06-04T11:41:27;23.90;47.40
58582;DHT22;44361;51.476;5.700;2023-06-04T11:43:52;24.10;47.20
58582;DHT22;44361;51.476;5.700;2023-06-04T11:46:20;24.10;47.30
58582;DHT22;44361;51.476;5.700;2023-06-04T11:48:46;24.10;46.20
58582;DHT22;44361;51.476;5.700;2023-06-04T11:51:12;24.00;44.30
58582;DHT22;44361;51.476;5.700;2023-06-04T11:53:38;24.10;44.60
58582;DHT22;44361;51.476;5.700;2023-06-04T11:56:05;24.40;45.80
58582;DHT22;44361;51.476;5.700;2023-06-04T11:58:31;24.50;46.00
58582;DHT22;44361;51.476;5.700;2023-06-04T12:00:57;24.30;47.40
58582;DHT22;44361;51.476;5.700;2023-06-04T12:03:35;23.80;49.20
58582;DHT22;44361;51.476;5.700;2023-06-04T12:06:18;23.70;47.20
58582;DHT22;44361;51.476;5.700;2023-06-04T12:08:54;23.90;47.40
58582;DHT22;44361;51.476;5.700;2023-06-04T12:11:34;24.50;47.70
58582;DHT22;44361;51.476;5.700;2023-06-04T12:14:06;24.70;47.40
58582;DHT22;44361;51.476;5.700;2023-06-04T12:16:33;24.30;46.20
58582;DHT22;44361;51.476;5.700;2023-06-04T12:19:09;24.30;46.00
58582;DHT22;44361;51.476;5.700;2023-06-04T12:21:36;24.50;46.60
58582;DHT22;44361;51.476;5.700;2023-06-04T12:24:10;24.10;46.10
58582;DHT22;44361;51.476;5.700;2023-06-04T12:26:36;24.10;47.10
58582;DHT22;44361;51.476;5.700;2023-06-04T12:29:08;24.30;46.80
58582;DHT22;44361;51.476;5.700;2023-06-04T12:31:36;24.20;46.00
58582;DHT22;44361;51.476;5.700;2023-06-04T12:34:02;24.30;46.40
58582;DHT22;44361;51.476;5.700;2023-06-04T12:36:27;24.40;47.70
58582;DHT22;44361;51.476;5.700;2023-06-04T12:38:59;24.60;46.80
58582;DHT22;44361;51.476;5.700;2023-06-04T12:41:28;24.40;46.70
58582;DHT22;44361;51.476;5.700;2023-06-04T12:43:54;24.50;46.70
58582;DHT22;44361;51.476;5.700;2023-06-04T12:46:20;24.10;46.00
58582;DHT22;44361;51.476;5.700;2023-06-04T12:48:47;24.00;46.40
58582;DHT22;44361;51.476;5.700;2023-06-04T12:51:12;24.40;47.10
58582;DHT22;44361;51.476;5.700;2023-06-04T12:53:39;24.50;47.60
58582;DHT22;44361;51.476;5.700;2023-06-04T12:56:05;24.90;46.30
58582;DHT22;44361;51.476;5.700;2023-06-04T12:58:31;25.00;47.30
58582;DHT22;44361;51.476;5.700;2023-06-04T13:00:56;25.10;46.70
58582;DHT22;44361;51.476;5.700;2023-06-04T13:03:22;24.60;45.60
58582;DHT22;44361;51.476;5.700;2023-06-04T13:05:48;24.70;45.50
58582;DHT22;44361;51.476;5.700;2023-06-04T13:08:14;24.60;46.00
58582;DHT22;44361;51.476;5.700;2023-06-04T13:10:40;24.70;47.50
58582;DHT22;44361;51.476;5.700;2023-06-04T13:13:06;24.70;46.70
58582;DHT22;44361;51.476;5.700;2023-06-04T13:15:31;24.80;46.10
58582;DHT22;44361;51.476;5.700;2023-06-04T13:17:57;24.80;45.90
58582;DHT22;44361;51.476;5.700;2023-06-04T13:20:22;24.60;46.20
58582;DHT22;44361;51.476;5.700;2023-06-04T13:22:48;24.70;46.60
58582;DHT22;44361;51.476;5.700;2023-06-04T13:25:14;24.80;47.00
58582;DHT22;44361;51.476;5.700;2023-06-04T13:27:40;25.10;46.00
58582;DHT22;44361;51.476;5.700;2023-06-04T13:30:06;25.40;48.90
58582;DHT22;44361;51.476;5.700;2023-06-04T13:32:32;25.70;46.20
58582;DHT22;44361;51.476;5.700;2023-06-04T13:34:57;25.60;47.00
58582;DHT22;44361;51.476;5.700;2023-06-04T13:37:23;25.40;46.90
58582;DHT22;44361;51.476;5.700;2023-06-04T13:39:49;25.20;46.80
58582;DHT22;44361;51.476;5.700;2023-06-04T13:42:14;25.40;47.00
58582;DHT22;44361;51.476;5.700;2023-06-04T13:44:40;25.50;46.20
58582;DHT22;44361;51.476;5.700;2023-06-04T13:47:05;25.40;46.10
58582;DHT22;44361;51.476;5.700;2023-06-04T13:49:34;25.40;45.80
58582;DHT22;44361;51.476;5.700;2023-06-04T13:52:00;25.60;46.00
58582;DHT22;44361;51.476;5.700;2023-06-04T13:54:26;25.10;46.00
58582;DHT22;44361;51.476;5.700;2023-06-04T13:56:52;25.00;46.40
58582;DHT22;44361;51.476;5.700;2023-06-04T13:59:17;25.10;46.30
58582;DHT22;44361;51.476;5.700;2023-06-04T14:01:43;24.70;45.90
58582;DHT22;44361;51.476;5.700;2023-06-04T14:04:08;24.70;46.30
58582;DHT22;44361;51.476;5.700;2023-06-04T14:06:36;24.50;46.00
58582;DHT22;44361;51.476;5.700;2023-06-04T14:09:04;24.70;47.00
58582;DHT22;44361;51.476;5.700;2023-06-04T14:11:31;25.10;46.60
58582;DHT22;44361;51.476;5.700;2023-06-04T14:13:58;25.20;46.30
58582;DHT22;44361;51.476;5.700;2023-06-04T14:16:23;25.30;47.00
58582;DHT22;44361;51.476;5.700;2023-06-04T14:18:49;25.30;45.90
58582;DHT22;44361;51.476;5.700;2023-06-04T14:21:15;25.00;45.50
58582;DHT22;44361;51.476;5.700;2023-06-04T14:23:40;25.20;46.40
58582;DHT22;44361;51.476;5.700;2023-06-04T14:26:06;25.30;45.50
58582;DHT22;44361;51.476;5.700;2023-06-04T14:28:32;25.40;46.40
58582;DHT22;44361;51.476;5.700;2023-06-04T14:30:57;25.30;46.20
58582;DHT22;44361;51.476;5.700;2023-06-04T14:33:24;25.50;45.90
58582;DHT22;44361;51.476;5.700;2023-06-04T14:35:49;25.70;46.00
58582;DHT22;44361;51.476;5.700;2023-06-04T14:38:17;25.70;45.40
58582;DHT22;44361;51.476;5.700;2023-06-04T14:40:43;26.00;46.70
58582;DHT22;44361;51.476;5.700;2023-06-04T14:43:13;25.80;46.20
58582;DHT22;44361;51.476;5.700;2023-06-04T14:45:42;25.70;46.60
58582;DHT22;44361;51.476;5.700;2023-06-04T14:48:08;25.70;45.20
58582;DHT22;44361;51.476;5.700;2023-06-04T14:50:34;25.40;45.80
58582;DHT22;44361;51.476;5.700;2023-06-04T14:53:00;25.20;46.10
58582;DHT22;44361;51.476;5.700;2023-06-04T14:55:26;25.20;46.60
58582;DHT22;44361;51.476;5.700;2023-06-04T14:57:51;25.30;46.50
58582;DHT22;44361;51.476;5.700;2023-06-04T15:00:17;25.30;46.20
58582;DHT22;44361;51.476;5.700;2023-06-04T15:02:42;25.70;47.80
58582;DHT22;44361;51.476;5.700;2023-06-04T15:05:08;25.90;46.90
58582;DHT22;44361;51.476;5.700;2023-06-04T15:07:34;26.00;45.20
58582;DHT22;44361;51.476;5.700;2023-06-04T15:09:59;25.90;46.30
58582;DHT22;44361;51.476;5.700;2023-06-04T15:12:27;26.10;46.40
58582;DHT22;44361;51.476;5.700;2023-06-04T15:14:53;25.90;45.90
58582;DHT22;44361;51.476;5.700;2023-06-04T15:17:18;25.70;46.00
58582;DHT22;44361;51.476;5.700;2023-06-04T15:19:44;26.00;46.10
58582;DHT22;44361;51.476;5.700;2023-06-04T15:22:10;26.10;45.20
58582;DHT22;44361;51.476;5.700;2023-06-04T15:24:35;25.80;45.80
58582;DHT22;44361;51.476;5.700;2023-06-04T15:27:01;25.50;46.70
58582;DHT22;44361;51.476;5.700;2023-06-04T15:29:26;25.20;46.30
58582;DHT22;44361;51.476;5.700;2023-06-04T15:31:52;25.40;47.10
58582;DHT22;44361;51.476;5.700;2023-06-04T15:34:17;25.40;47.20
58582;DHT22;44361;51.476;5.700;2023-06-04T15:36:44;25.70;46.50
58582;DHT22;44361;51.476;5.700;2023-06-04T15:39:11;25.90;46.10
58582;DHT22;44361;51.476;5.700;2023-06-04T15:41:37;26.10;46.90